Time;durP1;ratioP1;P1;durP2;ratioP2;P2;SDS_P1;SDS_P2;PMS_P1;PMS_P2;Temp;Humidity;BMP_temperature;BMP_pressure;BME280_temperature;BME280_humidity;BME280_pressure;Samples;Min_cycle;Max_cycle;Signal;HPM_P1;HPM_P2
2022/01/09 00:00:30;;;;;;;3.38;1.58;;;;;;;4.66;85.65;98694.28;5095094;28;20045;-70
2022/01/09 00:02:58;;;;;;;3.30;1.48;;;;;;;4.67;85.58;98697.75;5088928;28;20068;-70
2022/01/09 00:05:26;;;;;;;4.35;2.38;;;;;;;4.70;85.70;98707.22;5091023;28;20143;-70
2022/01/09 00:07:53;;;;;;;5.03;2.47;;;;;;;4.72;85.53;98703.63;5095879;28;20057;-69
2022/01/09 00:10:20;;;;;;;7.07;2.67;;;;;;;4.75;85.70;98705.25;5082695;28;20176;-68
2022/01/09 00:12:47;;;;;;;2.72;1.42;;;;;;;4.78;85.67;98705.16;5091375;28;20047;-69
2022/01/09 00:15:14;;;;;;;2.45;1.15;;;;;;;4.80;85.27;98716.38;5095174;28;20040;-68
2022/01/09 00:17:41;;;;;;;2.20;1.20;;;;;;;4.82;85.64;98727.63;5094470;28;20052;-69
2022/01/09 00:20:13;;;;;;;1.90;1.38;;;;;;;4.82;85.81;98731.06;5095516;28;20045;-68
2022/01/09 00:22:48;;;;;;;2.50;1.75;;;;;;;4.77;85.83;98734.78;5095259;28;20083;-69
2022/01/09 00:25:19;;;;;;;1.90;1.48;;;;;;;4.75;85.96;98724.41;5093567;28;20115;-69
2022/01/09 00:27:47;;;;;;;2.30;1.50;;;;;;;4.77;85.99;98722.59;5090381;28;20071;-70
2022/01/09 00:30:17;;;;;;;1.70;1.40;;;;;;;4.77;85.81;98735.63;5095850;28;20072;-69
2022/01/09 00:32:44;;;;;;;2.50;1.60;;;;;;;4.81;86.11;98752.84;5085041;28;20064;-70
2022/01/09 00:35:13;;;;;;;2.50;1.70;;;;;;;4.83;85.98;98745.00;5095596;28;20080;-70
2022/01/09 00:37:41;;;;;;;3.92;1.63;;;;;;;4.84;86.10;98754.50;5095825;28;20037;-70
2022/01/09 00:40:12;;;;;;;3.05;1.52;;;;;;;4.86;86.14;98755.28;5094670;28;20041;-71
2022/01/09 00:42:39;;;;;;;2.15;1.70;;;;;;;4.87;85.97;98754.38;5095438;28;20516;-70
2022/01/09 00:45:08;;;;;;;2.28;1.77;;;;;;;4.88;86.18;98761.31;5095288;28;20098;-70
2022/01/09 00:47:35;;;;;;;2.33;2.03;;;;;;;4.89;86.07;98762.13;5094152;28;20044;-70
2022/01/09 00:50:03;;;;;;;2.42;1.88;;;;;;;4.92;86.30;98769.84;5092015;28;20049;-70
2022/01/09 00:52:30;;;;;;;4.03;1.73;;;;;;;4.93;86.16;98775.03;5078933;28;20074;-71
2022/01/09 00:54:57;;;;;;;1.90;1.65;;;;;;;4.95;86.08;98778.41;5090101;28;20044;-70
2022/01/09 00:57:24;;;;;;;2.00;1.60;;;;;;;4.96;86.03;98787.94;5094977;28;20048;-70
2022/01/09 00:59:50;;;;;;;2.58;1.60;;;;;;;4.98;86.05;98791.34;5086273;28;20063;-69
2022/01/09 01:02:17;;;;;;;10.05;7.38;;;;;;;5.00;85.95;98790.44;5092803;28;20060;-68
2022/01/09 01:04:45;;;;;;;9.32;7.10;;;;;;;5.00;85.94;98793.91;5088561;28;20072;-70
2022/01/09 01:07:12;;;;;;;2.25;1.83;;;;;;;5.03;85.86;98803.41;5095635;28;20049;-70
2022/01/09 01:09:38;;;;;;;2.28;1.52;;;;;;;5.04;85.85;98811.16;5093164;28;20040;-69
2022/01/09 01:12:06;;;;;;;2.22;1.40;;;;;;;5.06;85.98;98817.19;5081243;28;20497;-68
2022/01/09 01:14:35;;;;;;;1.60;1.50;;;;;;;5.08;85.92;98817.97;5092331;28;20057;-69
2022/01/09 01:17:02;;;;;;;2.70;1.60;;;;;;;5.09;86.04;98829.25;5093828;28;20739;-71
2022/01/09 01:19:29;;;;;;;2.30;2.10;;;;;;;5.09;86.32;98826.66;5094740;28;20056;-70
2022/01/09 01:22:13;;;;;;;2.45;2.22;;;;;;;5.09;86.76;98829.25;5095359;28;20055;-69
2022/01/09 01:24:40;;;;;;;4.25;2.47;;;;;;;5.11;86.72;98843.94;5091923;28;20032;-70
2022/01/09 01:27:09;;;;;;;6.25;2.95;;;;;;;5.14;86.92;98856.03;5081637;28;20045;-69
2022/01/09 01:29:37;;;;;;;3.55;2.40;;;;;;;5.15;86.50;98857.72;5088361;28;20063;-67
2022/01/09 01:32:05;;;;;;;2.78;1.75;;;;;;;5.18;86.33;98864.63;5095180;28;20041;-70
2022/01/09 01:34:35;;;;;;;2.17;1.15;;;;;;;5.15;85.90;98877.78;5095225;28;20083;-70
2022/01/09 01:37:02;;;;;;;3.13;1.17;;;;;;;5.10;85.21;98886.66;5095521;28;20657;-70
2022/01/09 01:39:28;;;;;;;2.45;0.80;;;;;;;5.04;84.20;98899.09;5094812;28;20052;-70
2022/01/09 01:41:55;;;;;;;4.00;0.88;;;;;;;4.96;84.08;98925.53;5095161;28;20149;-69
2022/01/09 01:44:22;;;;;;;7.07;1.25;;;;;;;4.90;85.05;98899.63;5094111;28;20052;-70
2022/01/09 01:46:49;;;;;;;6.97;1.25;;;;;;;4.85;85.23;98923.28;5095718;28;20049;-71
2022/01/09 01:49:16;;;;;;;5.65;1.90;;;;;;;4.81;85.50;98916.50;5093515;28;20136;-71
2022/01/09 01:51:45;;;;;;;6.32;1.50;;;;;;;4.78;85.97;98914.84;5083341;28;20041;-73
2022/01/09 01:54:13;;;;;;;4.47;1.42;;;;;;;4.77;86.25;98930.56;5093464;28;20059;-70
2022/01/09 01:56:40;;;;;;;6.63;1.38;;;;;;;4.76;85.79;98928.88;5091353;28;20041;-71
2022/01/09 01:59:07;;;;;;;7.50;1.70;;;;;;;4.76;86.42;98941.91;5086973;28;20392;-68
2022/01/09 02:01:36;;;;;;;9.80;2.03;;;;;;;4.76;86.94;98927.13;5094785;28;20132;-69
2022/01/09 02:04:04;;;;;;;6.10;1.40;;;;;;;4.76;87.28;98952.34;5089915;28;20051;-72
2022/01/09 02:06:34;;;;;;;11.00;1.90;;;;;;;4.77;87.52;98943.63;5095580;28;20494;-73
2022/01/09 02:09:04;;;;;;;14.75;2.92;;;;;;;4.81;87.83;98945.22;5093043;28;20051;-72
2022/01/09 02:11:32;;;;;;;19.55;2.90;;;;;;;4.84;88.06;98952.94;5089529;28;20766;-69
2022/01/09 02:13:58;;;;;;;14.65;2.83;;;;;;;4.91;88.27;98949.19;5092286;28;20040;-71
2022/01/09 02:16:26;;;;;;;24.00;5.43;;;;;;;4.97;87.79;98959.41;5084677;28;20062;-72
2022/01/09 02:18:53;;;;;;;26.13;3.75;;;;;;;5.05;87.44;98963.47;5087928;28;20052;-70
2022/01/09 02:21:22;;;;;;;21.50;2.70;;;;;;;5.12;87.11;98983.25;5089229;28;20067;-70
2022/01/09 02:23:49;;;;;;;27.27;3.92;;;;;;;5.16;86.73;98978.75;5092586;28;20811;-67
2022/01/09 02:26:20;;;;;;;22.40;3.38;;;;;;;5.17;86.54;98989.16;5092704;28;20491;-68
2022/01/09 02:28:48;;;;;;;20.90;3.28;;;;;;;5.20;85.64;99001.22;5093322;28;20144;-69
2022/01/09 02:31:15;;;;;;;27.52;3.60;;;;;;;5.18;85.83;99008.31;5093307;28;20479;-69
2022/01/09 02:33:43;;;;;;;26.23;3.83;;;;;;;5.19;85.74;99020.47;5093324;28;20048;-69
2022/01/09 02:36:10;;;;;;;20.98;3.28;;;;;;;5.20;85.83;99019.53;5089789;28;20045;-70
2022/01/09 02:38:37;;;;;;;22.92;3.30;;;;;;;5.20;85.95;99023.00;5083076;28;20048;-66
2022/01/09 02:41:04;;;;;;;27.10;3.45;;;;;;;5.21;85.75;99034.28;5084102;28;20049;-68
2022/01/09 02:43:31;;;;;;;19.05;3.33;;;;;;;5.23;85.63;99037.72;5094081;28;20052;-67
2022/01/09 02:48:34;;;;;;;19.05;3.60;;;;;;;5.24;85.39;99062.94;5093862;28;21138;-70
2022/01/09 02:51:08;;;;;;;21.00;3.63;;;;;;;5.23;85.67;99069.94;5085607;28;20060;-65
2022/01/09 02:53:36;;;;;;;20.92;3.35;;;;;;;5.24;85.01;99069.00;5089774;28;20136;-68
2022/01/09 02:56:07;;;;;;;25.02;3.53;;;;;;;5.22;85.59;99073.44;5089316;28;20457;-66
2022/01/09 02:58:34;;;;;;;29.90;4.35;;;;;;;5.22;85.63;99083.03;5092762;28;20124;-70
2022/01/09 03:01:03;;;;;;;21.63;3.42;;;;;;;5.23;85.95;99079.50;5092907;28;20044;-70
2022/01/09 03:03:29;;;;;;;27.00;3.40;;;;;;;5.22;86.11;99075.19;5092282;28;20487;-68
2022/01/09 03:05:56;;;;;;;28.63;4.22;;;;;;;5.23;86.17;99096.06;5089531;28;20059;-67
2022/01/09 03:08:23;;;;;;;23.13;3.72;;;;;;;5.26;86.32;99097.69;5091318;28;20478;-70
2022/01/09 03:10:50;;;;;;;31.05;4.72;;;;;;;5.26;86.48;99109.00;5085230;28;20045;-69
2022/01/09 03:13:17;;;;;;;24.50;3.72;;;;;;;5.25;86.56;99114.28;5078745;28;20052;-67
2022/01/09 03:15:44;;;;;;;26.35;3.85;;;;;;;5.24;86.62;99120.41;5090499;28;20055;-69
2022/01/09 03:18:12;;;;;;;27.08;3.30;;;;;;;5.22;86.67;99120.47;5083892;28;20083;-70
2022/01/09 03:20:40;;;;;;;29.58;4.22;;;;;;;5.23;86.43;99131.75;5087577;28;20733;-70
2022/01/09 03:23:08;;;;;;;36.78;4.47;;;;;;;5.20;86.64;99137.97;5084260;28;20044;-69
2022/01/09 03:25:36;;;;;;;21.23;3.83;;;;;;;5.19;86.34;99138.88;5092751;28;20041;-69
2022/01/09 03:28:04;;;;;;;25.20;3.83;;;;;;;5.20;85.92;99148.41;5081392;28;20045;-69
2022/01/09 03:30:31;;;;;;;21.42;3.58;;;;;;;5.19;85.81;99145.88;5093720;28;20490;-70
2022/01/09 03:32:58;;;;;;;32.42;4.53;;;;;;;5.23;85.30;99164.00;5085753;28;20118;-70
2022/01/09 03:35:27;;;;;;;18.17;2.88;;;;;;;5.25;85.13;99164.75;5095417;28;20106;-66
2022/01/09 03:37:55;;;;;;;22.13;3.88;;;;;;;5.26;85.09;99169.09;5092093;28;20045;-70
2022/01/09 03:40:25;;;;;;;25.52;3.88;;;;;;;5.28;84.93;99171.66;5087821;28;20071;-69
2022/01/09 03:42:52;;;;;;;26.80;3.60;;;;;;;5.27;84.60;99178.63;5094961;28;20044;-70
2022/01/09 03:45:22;;;;;;;24.88;4.22;;;;;;;5.25;84.74;99180.44;5095816;28;20041;-69
2022/01/09 03:47:50;;;;;;;29.63;3.63;;;;;;;5.24;84.34;99198.78;5093592;28;20044;-70
2022/01/09 03:50:17;;;;;;;25.02;3.45;;;;;;;5.26;84.11;99195.22;5094318;28;20381;-69
2022/01/09 03:52:48;;;;;;;21.52;3.92;;;;;;;5.23;84.09;99203.19;5095958;28;20046;-70
2022/01/09 03:55:17;;;;;;;19.90;2.95;;;;;;;5.21;83.58;99204.13;5097132;28;20047;-70
2022/01/09 03:57:46;;;;;;;26.35;3.95;;;;;;;5.21;83.33;99223.28;5096023;28;20055;-69
2022/01/09 04:00:18;;;;;;;28.33;3.78;;;;;;;5.23;82.90;99215.38;5091471;28;20494;-70
2022/01/09 04:02:48;;;;;;;18.75;2.90;;;;;;;5.27;83.00;99227.44;5096371;28;20051;-71
2022/01/09 04:05:17;;;;;;;33.10;3.30;;;;;;;5.28;83.02;99226.53;5096775;28;20127;-70
2022/01/09 04:07:43;;;;;;;20.30;3.00;;;;;;;5.28;82.89;99235.22;5096164;28;20040;-69
2022/01/09 04:10:22;;;;;;;20.20;2.55;;;;;;;5.28;83.00;99250.91;5089557;28;20053;-70
2022/01/09 04:12:58;;;;;;;22.58;3.13;;;;;;;5.28;82.34;99250.06;5095019;28;20051;-71
2022/01/09 04:15:28;;;;;;;18.95;3.08;;;;;;;5.28;82.89;99261.34;5094647;28;20037;-69
2022/01/09 04:17:56;;;;;;;20.33;2.83;;;;;;;5.28;82.61;99281.41;5093926;28;20049;-70
2022/01/09 04:20:31;;;;;;;17.35;2.55;;;;;;;5.29;82.24;99283.13;5095575;28;20053;-70
2022/01/09 04:22:59;;;;;;;15.10;2.63;;;;;;;5.30;82.35;99287.41;5096041;28;20087;-70
2022/01/09 04:25:26;;;;;;;20.88;2.88;;;;;;;5.31;81.46;99294.34;5095567;28;20041;-70
2022/01/09 04:27:54;;;;;;;16.20;2.45;;;;;;;5.34;81.49;99283.81;5083279;28;20057;-70
2022/01/09 04:30:21;;;;;;;21.35;3.20;;;;;;;5.36;81.60;99299.44;5090596;28;20784;-71
2022/01/09 04:32:47;;;;;;;16.30;2.78;;;;;;;5.37;80.44;99307.22;5088020;28;20459;-70
2022/01/09 04:35:15;;;;;;;13.80;2.70;;;;;;;5.37;80.49;99314.22;5092667;28;20048;-71
2022/01/09 04:37:42;;;;;;;21.63;3.15;;;;;;;5.34;80.66;99312.56;5096956;28;20041;-71
2022/01/09 04:40:12;;;;;;;22.58;2.75;;;;;;;5.29;80.86;99328.38;5094009;28;20051;-72
2022/01/09 04:42:43;;;;;;;15.50;3.63;;;;;;;5.27;81.07;99324.97;5090793;28;20053;-72
2022/01/09 04:45:13;;;;;;;14.35;2.15;;;;;;;5.22;80.57;99320.78;5082166;28;20056;-71
2022/01/09 04:47:43;;;;;;;18.67;2.90;;;;;;;5.22;81.48;99337.34;5096419;28;20047;-70
2022/01/09 04:50:15;;;;;;;17.65;2.28;;;;;;;5.22;80.84;99336.47;5095989;28;20045;-68
2022/01/09 04:52:43;;;;;;;17.65;3.05;;;;;;;5.23;80.65;99352.13;5094384;28;20698;-69
2022/01/09 04:55:10;;;;;;;17.08;2.67;;;;;;;5.22;80.79;99354.75;5093502;28;20048;-72
2022/01/09 04:57:37;;;;;;;16.15;2.65;;;;;;;5.20;80.35;99367.88;5094599;28;20049;-69
2022/01/09 05:00:06;;;;;;;12.70;1.83;;;;;;;5.18;80.66;99364.47;5091347;28;20053;-70
2022/01/09 05:02:33;;;;;;;20.35;3.00;;;;;;;5.17;80.45;99375.81;5095269;28;20049;-73
2022/01/09 05:05:03;;;;;;;23.50;3.22;;;;;;;5.18;80.32;99380.13;5094893;28;20140;-72
2022/01/09 05:07:30;;;;;;;19.52;2.22;;;;;;;5.15;79.83;99388.06;5088223;28;20041;-70
2022/01/09 05:09:56;;;;;;;12.07;2.00;;;;;;;5.15;80.36;99390.66;5090974;28;20071;-72
2022/01/09 05:12:23;;;;;;;14.90;2.58;;;;;;;5.13;79.67;99401.19;5091456;28;20518;-72
2022/01/09 05:14:50;;;;;;;18.52;2.25;;;;;;;5.08;79.26;99407.44;5086896;28;20044;-69
2022/01/09 05:17:16;;;;;;;14.43;2.10;;;;;;;5.05;79.90;99415.38;5091089;28;20056;-71
2022/01/09 05:19:43;;;;;;;16.40;2.30;;;;;;;5.03;79.73;99430.25;5089677;28;20147;-71
2022/01/09 05:22:10;;;;;;;13.30;2.47;;;;;;;4.99;79.36;99421.63;5091679;28;20037;-71
2022/01/09 05:24:37;;;;;;;18.58;2.55;;;;;;;4.96;79.63;99432.19;5092584;28;20498;-72
2022/01/09 05:27:04;;;;;;;10.55;1.92;;;;;;;4.95;79.16;99433.09;5093043;28;20530;-72
2022/01/09 05:29:31;;;;;;;14.23;2.13;;;;;;;4.93;79.17;99448.81;5095547;28;20056;-72
2022/01/09 05:31:57;;;;;;;13.40;2.33;;;;;;;4.91;79.60;99454.97;5082120;28;20049;-71
2022/01/09 05:34:24;;;;;;;11.27;2.00;;;;;;;4.87;79.98;99462.03;5095258;28;20491;-70
2022/01/09 05:36:51;;;;;;;13.30;2.88;;;;;;;4.85;79.91;99470.81;5095275;28;20173;-70
2022/01/09 05:39:18;;;;;;;14.05;2.70;;;;;;;4.86;79.67;99481.22;5089308;28;20514;-70
2022/01/09 05:41:46;;;;;;;15.00;2.40;;;;;;;4.83;79.84;99483.94;5094748;28;20052;-71
2022/01/09 05:44:13;;;;;;;13.18;2.20;;;;;;;4.81;79.79;99477.88;5092569;28;20045;-71
2022/01/09 05:46:40;;;;;;;9.95;1.83;;;;;;;4.80;79.32;99490.06;5093188;28;20482;-70
2022/01/09 05:49:07;;;;;;;11.65;2.50;;;;;;;4.77;79.76;99498.00;5082457;28;20041;-73
2022/01/09 05:51:33;;;;;;;19.15;2.17;;;;;;;4.76;79.30;99504.13;5092909;28;20060;-72
2022/01/09 05:54:00;;;;;;;13.07;2.22;;;;;;;4.75;79.33;99494.56;5094858;28;20048;-71
2022/01/09 05:56:27;;;;;;;19.38;1.77;;;;;;;4.76;79.04;99511.09;5095071;28;20463;-70
2022/01/09 05:58:53;;;;;;;11.60;1.70;;;;;;;4.78;78.68;99512.75;5094395;28;20045;-71
2022/01/09 06:01:20;;;;;;;12.88;1.80;;;;;;;4.75;78.25;99518.06;5095415;28;20055;-69
2022/01/09 06:03:47;;;;;;;9.82;2.38;;;;;;;4.73;78.58;99517.25;5092489;28;20061;-69
2022/01/09 06:06:14;;;;;;;9.13;1.65;;;;;;;4.69;78.58;99520.84;5081551;28;20044;-71
2022/01/09 06:08:40;;;;;;;11.40;2.25;;;;;;;4.66;78.25;99516.56;5094547;28;20047;-70
2022/01/09 06:11:07;;;;;;;13.13;1.88;;;;;;;4.64;79.13;99528.78;5091604;28;20040;-71
2022/01/09 06:13:34;;;;;;;12.15;1.92;;;;;;;4.65;78.86;99537.50;5093265;28;20055;-71
2022/01/09 06:16:01;;;;;;;9.10;1.52;;;;;;;4.64;78.93;99541.00;5085779;28;20041;-71
2022/01/09 06:18:27;;;;;;;11.48;2.40;;;;;;;4.63;79.30;99544.50;5094790;28;20045;-70
2022/01/09 06:20:54;;;;;;;14.15;2.15;;;;;;;4.66;78.83;99541.81;5086327;28;20131;-70
2022/01/09 06:23:20;;;;;;;12.52;1.70;;;;;;;4.64;79.73;99549.69;5092932;28;20037;-70
2022/01/09 06:25:48;;;;;;;7.25;2.33;;;;;;;4.64;79.90;99554.91;5088470;28;20053;-70
2022/01/09 06:28:15;;;;;;;12.30;2.30;;;;;;;4.65;79.58;99566.22;5075500;28;20045;-71
2022/01/09 06:30:43;;;;;;;12.38;2.10;;;;;;;4.65;79.99;99566.22;5081528;28;20037;-70
2022/01/09 06:33:11;;;;;;;17.13;2.50;;;;;;;4.66;80.61;99571.38;5089612;28;20079;-69
2022/01/09 06:35:40;;;;;;;14.32;1.90;;;;;;;4.68;80.55;99580.94;5090599;28;20147;-70
2022/01/09 06:38:07;;;;;;;13.88;2.30;;;;;;;4.65;80.46;99584.50;5091298;28;20048;-70
2022/01/09 06:40:35;;;;;;;19.35;2.55;;;;;;;4.61;80.91;99580.25;5082069;28;20059;-69
2022/01/09 06:43:03;;;;;;;16.55;2.55;;;;;;;4.55;80.93;99590.84;5087577;28;20079;-70
2022/01/09 06:45:30;;;;;;;9.20;2.30;;;;;;;4.52;81.06;99594.41;5082017;28;20052;-71
2022/01/09 06:47:58;;;;;;;10.00;1.85;;;;;;;4.45;80.59;99585.88;5087873;28;20084;-71
2022/01/09 06:50:27;;;;;;;13.25;2.17;;;;;;;4.41;80.84;99588.59;5078274;28;20123;-71
2022/01/09 06:52:54;;;;;;;11.50;2.35;;;;;;;4.38;81.25;99599.09;5083868;28;20124;-71
2022/01/09 06:55:20;;;;;;;16.40;2.30;;;;;;;4.34;81.65;99606.16;5085519;28;20051;-72
2022/01/09 06:57:48;;;;;;;14.60;2.33;;;;;;;4.30;81.65;99607.97;5077874;28;20061;-68
2022/01/09 07:00:17;;;;;;;12.82;2.33;;;;;;;4.27;81.90;99610.66;5080720;28;20053;-67
2022/01/09 07:02:45;;;;;;;15.00;2.30;;;;;;;4.25;82.19;99614.19;5080820;28;20045;-68
2022/01/09 07:05:14;;;;;;;14.07;2.83;;;;;;;4.22;82.38;99620.34;5092194;28;20052;-69
2022/01/09 07:07:41;;;;;;;14.52;2.30;;;;;;;4.27;82.01;99630.69;5089515;28;20127;-69
2022/01/09 07:10:08;;;;;;;11.48;1.98;;;;;;;4.29;81.98;99632.34;5083858;28;20513;-70
2022/01/09 07:12:36;;;;;;;13.45;2.42;;;;;;;4.35;81.90;99642.63;5087299;28;20044;-70
2022/01/09 07:15:06;;;;;;;13.10;2.50;;;;;;;4.38;81.71;99651.28;5082303;28;20045;-71
2022/01/09 07:17:34;;;;;;;15.95;2.90;;;;;;;4.36;81.04;99651.34;5086475;28;20055;-68
2022/01/09 07:20:01;;;;;;;17.42;2.55;;;;;;;4.31;81.40;99656.66;5084588;28;20063;-68
2022/01/09 07:22:27;;;;;;;17.35;3.08;;;;;;;4.27;81.77;99665.44;5086232;28;20041;-69
2022/01/09 07:24:54;;;;;;;10.50;2.42;;;;;;;4.28;81.78;99661.06;5083643;28;20041;-69
2022/01/09 07:27:21;;;;;;;16.58;2.50;;;;;;;4.27;81.72;99672.41;5089791;28;20523;-70
2022/01/09 07:29:49;;;;;;;15.25;2.95;;;;;;;4.28;81.68;99677.59;5089140;28;20131;-69
2022/01/09 07:32:15;;;;;;;9.98;2.05;;;;;;;4.30;81.85;99677.56;5091789;28;20052;-70
2022/01/09 07:34:42;;;;;;;14.15;2.38;;;;;;;4.31;82.06;99674.06;5089951;28;20040;-68
2022/01/09 07:37:10;;;;;;;11.45;2.22;;;;;;;4.29;81.99;99687.13;5086843;28;20068;-68
2022/01/09 07:39:37;;;;;;;11.93;2.38;;;;;;;4.25;81.85;99690.69;5086120;28;20714;-69
2022/01/09 07:42:05;;;;;;;16.15;2.80;;;;;;;4.21;82.06;99694.28;5080559;28;20056;-70
2022/01/09 07:44:31;;;;;;;12.45;2.58;;;;;;;4.18;81.98;99700.41;5082959;28;20045;-68
2022/01/09 07:46:58;;;;;;;10.52;1.83;;;;;;;4.16;81.54;99704.81;5080131;28;20044;-71
2022/01/09 07:49:26;;;;;;;10.63;2.10;;;;;;;4.17;81.71;99705.69;5086184;28;20045;-69
2022/01/09 07:51:53;;;;;;;12.23;1.83;;;;;;;4.16;81.42;99723.09;5088696;28;20055;-67
2022/01/09 07:54:20;;;;;;;8.95;2.20;;;;;;;4.17;81.53;99719.56;5082856;28;20079;-69
2022/01/09 07:56:47;;;;;;;15.90;2.90;;;;;;;4.16;81.83;99715.25;5083221;28;20044;-71
2022/01/09 07:59:14;;;;;;;14.48;2.60;;;;;;;4.16;82.10;99717.88;5084739;28;20126;-71
2022/01/09 08:01:47;;;;;;;13.98;2.55;;;;;;;4.16;82.16;99722.22;5085897;28;20130;-70
2022/01/09 08:04:14;;;;;;;13.63;2.58;;;;;;;4.17;82.08;99724.78;5085930;28;20778;-68
2022/01/09 08:06:44;;;;;;;9.65;2.30;;;;;;;4.17;81.88;99735.22;5080927;28;20041;-70
2022/01/09 08:09:11;;;;;;;11.75;2.40;;;;;;;4.17;82.38;99731.75;5083535;28;20071;-73
2022/01/09 08:11:38;;;;;;;9.13;1.77;;;;;;;4.21;81.79;99746.47;5085685;28;20055;-73
2022/01/09 08:14:04;;;;;;;11.13;2.22;;;;;;;4.22;81.25;99742.97;5085920;28;20052;-73
2022/01/09 08:16:31;;;;;;;9.73;2.00;;;;;;;4.18;81.64;99752.59;5084880;28;20049;-72
2022/01/09 08:18:58;;;;;;;8.90;2.08;;;;;;;4.18;82.28;99760.41;5090691;28;20040;-68
2022/01/09 08:21:25;;;;;;;9.60;2.10;;;;;;;4.18;82.01;99759.56;5086639;28;20498;-69
2022/01/09 08:23:52;;;;;;;8.75;2.00;;;;;;;4.21;82.57;99767.34;5088017;28;20052;-72
2022/01/09 08:26:19;;;;;;;8.57;2.10;;;;;;;4.27;82.65;99771.56;5087121;28;20079;-70
2022/01/09 08:28:48;;;;;;;10.98;2.22;;;;;;;4.30;81.58;99774.97;5092318;28;20048;-68
2022/01/09 08:31:17;;;;;;;10.02;1.75;;;;;;;4.24;80.91;99782.06;5081722;28;20518;-73
2022/01/09 08:33:45;;;;;;;6.68;1.98;;;;;;;4.16;80.69;99784.81;5090629;28;20123;-69
2022/01/09 08:36:13;;;;;;;7.88;1.77;;;;;;;4.16;81.32;99782.22;5088927;28;20083;-69
2022/01/09 08:38:40;;;;;;;7.57;1.50;;;;;;;4.19;81.58;99784.78;5091979;28;20814;-69
2022/01/09 08:41:07;;;;;;;6.40;1.40;;;;;;;4.27;81.67;99788.06;5087215;28;20144;-70
2022/01/09 08:43:36;;;;;;;6.70;1.42;;;;;;;4.35;81.75;99787.91;5089835;28;20049;-68
2022/01/09 08:46:04;;;;;;;9.32;1.85;;;;;;;4.38;81.87;99790.44;5091261;28;20129;-72
2022/01/09 08:48:31;;;;;;;4.10;1.45;;;;;;;4.41;81.64;99793.00;5084200;28;20040;-69
2022/01/09 08:50:59;;;;;;;8.52;1.80;;;;;;;4.45;81.73;99786.81;5087369;28;20044;-71
2022/01/09 08:53:26;;;;;;;6.75;2.00;;;;;;;4.52;81.60;99787.56;5086055;28;20049;-69
2022/01/09 08:55:53;;;;;;;8.13;1.70;;;;;;;4.58;81.77;99787.41;5087956;28;20132;-69
2022/01/09 08:58:19;;;;;;;7.00;1.88;;;;;;;4.70;81.12;99790.63;5090057;28;20139;-68
2022/01/09 09:00:46;;;;;;;9.77;2.22;;;;;;;4.77;80.99;99797.44;5084417;28;20053;-69
2022/01/09 09:03:13;;;;;;;7.90;2.15;;;;;;;4.82;80.71;99804.25;5086192;28;20068;-70
2022/01/09 09:05:40;;;;;;;6.72;2.08;;;;;;;4.86;79.74;99802.44;5084283;28;20055;-69
2022/01/09 09:08:07;;;;;;;6.45;1.90;;;;;;;4.84;79.92;99816.44;5079180;28;20041;-68
2022/01/09 09:10:34;;;;;;;10.95;2.53;;;;;;;4.85;79.88;99820.75;5090891;28;20440;-72
2022/01/09 09:13:00;;;;;;;10.90;1.92;;;;;;;4.87;80.31;99818.97;5076090;28;20037;-70
2022/01/09 09:15:27;;;;;;;5.20;1.70;;;;;;;5.03;80.31;99822.94;5085376;28;20048;-71
2022/01/09 09:17:55;;;;;;;5.40;2.00;;;;;;;5.28;80.17;99827.59;5083974;28;20456;-70
2022/01/09 09:20:23;;;;;;;8.57;2.20;;;;;;;5.50;79.22;99827.00;5085900;28;20056;-70
2022/01/09 09:22:50;;;;;;;9.85;2.08;;;;;;;5.60;79.00;99834.59;5085306;28;20498;-70
2022/01/09 09:25:17;;;;;;;8.68;2.15;;;;;;;5.72;79.31;99846.50;5093381;28;20051;-70
2022/01/09 09:27:44;;;;;;;9.98;2.13;;;;;;;5.80;79.19;99850.69;5079485;28;20076;-70
2022/01/09 09:30:14;;;;;;;9.85;2.08;;;;;;;5.94;78.97;99855.53;5084426;28;20056;-71
2022/01/09 09:32:42;;;;;;;11.30;2.33;;;;;;;5.96;78.96;99854.59;5087047;28;20129;-70
2022/01/09 09:35:12;;;;;;;9.60;2.03;;;;;;;5.95;78.07;99865.97;5089840;28;20047;-73
2022/01/09 09:37:40;;;;;;;15.77;2.83;;;;;;;5.88;78.46;99869.66;5083461;28;20044;-70
2022/01/09 09:40:09;;;;;;;10.88;2.33;;;;;;;5.81;78.87;99866.31;5089561;28;20048;-71
2022/01/09 09:42:36;;;;;;;11.07;2.47;;;;;;;5.75;78.34;99874.31;5079750;28;20049;-71
2022/01/09 09:45:11;;;;;;;12.57;2.38;;;;;;;5.67;78.20;99878.88;5087872;28;20041;-71
2022/01/09 09:47:40;;;;;;;7.78;2.10;;;;;;;5.57;78.32;99884.34;5090641;28;20133;-71
2022/01/09 09:50:12;;;;;;;9.65;2.47;;;;;;;5.50;78.91;99885.41;5090151;28;20044;-71
2022/01/09 09:52:44;;;;;;;13.05;2.58;;;;;;;5.51;79.52;99894.97;5083412;28;20053;-71
2022/01/09 09:55:12;;;;;;;11.18;2.38;;;;;;;5.57;79.67;99899.19;5088748;28;20056;-71
2022/01/09 09:57:40;;;;;;;10.98;2.67;;;;;;;5.63;79.41;99898.19;5084176;28;20068;-72
2022/01/09 10:00:15;;;;;;;13.60;2.63;;;;;;;5.66;79.47;99906.81;5084858;28;20049;-73
2022/01/09 10:02:44;;;;;;;7.97;2.40;;;;;;;5.72;79.52;99908.41;5085221;28;20123;-70
2022/01/09 10:05:16;;;;;;;11.05;2.70;;;;;;;5.77;79.05;99911.75;5084389;28;20045;-71
2022/01/09 10:07:48;;;;;;;9.63;2.65;;;;;;;5.78;79.06;99915.25;5085045;28;20044;-73
2022/01/09 10:10:20;;;;;;;12.20;2.45;;;;;;;5.79;79.23;99919.59;5082312;28;20044;-71
2022/01/09 10:12:48;;;;;;;10.75;2.53;;;;;;;5.77;79.05;99919.59;5080142;28;20049;-71
2022/01/09 10:15:18;;;;;;;10.45;2.20;;;;;;;5.74;79.57;99914.47;5086024;28;20073;-73
2022/01/09 10:17:50;;;;;;;8.52;2.10;;;;;;;5.82;79.71;99912.50;5080755;28;20791;-71
2022/01/09 10:20:23;;;;;;;8.73;2.15;;;;;;;5.96;79.02;99919.13;5086137;28;20531;-71
2022/01/09 10:22:54;;;;;;;12.85;2.17;;;;;;;6.02;79.21;99919.88;5085258;28;20040;-70
2022/01/09 10:25:36;;;;;;;4.90;2.00;;;;;;;6.19;79.18;99926.44;5090773;28;20913;-70
2022/01/09 10:28:13;;;;;;;11.45;2.75;;;;;;;6.30;77.89;99921.75;5082240;28;20844;-70
2022/01/09 10:30:51;;;;;;;13.48;2.53;;;;;;;6.39;77.46;99925.88;5079918;28;20051;-71
2022/01/09 10:33:26;;;;;;;10.50;2.55;;;;;;;6.39;77.91;99933.72;5081051;28;20117;-70
2022/01/09 10:35:53;;;;;;;9.20;2.05;;;;;;;6.43;77.12;99935.38;5083027;28;20126;-70
2022/01/09 10:38:29;;;;;;;13.20;2.75;;;;;;;6.35;77.26;99942.59;5080307;28;20569;-72
2022/01/09 10:41:01;;;;;;;11.45;2.42;;;;;;;6.29;77.10;99940.97;5085157;28;20065;-70
2022/01/09 10:43:41;;;;;;;7.22;1.95;;;;;;;6.24;77.09;99940.22;5091476;28;20032;-69
2022/01/09 10:46:09;;;;;;;10.73;2.42;;;;;;;6.25;77.65;99947.19;5093030;28;20580;-70
2022/01/09 10:48:41;;;;;;;17.60;2.72;;;;;;;6.26;77.44;99951.53;5092485;28;20044;-70
2022/01/09 10:51:13;;;;;;;15.63;2.47;;;;;;;6.26;77.06;99943.69;5088456;28;20040;-71
2022/01/09 10:53:43;;;;;;;13.80;2.25;;;;;;;6.15;76.97;99959.69;5081452;28;20044;-71
2022/01/09 10:56:17;;;;;;;10.05;2.05;;;;;;;6.06;77.08;99957.28;5091750;28;20521;-71
2022/01/09 10:58:54;;;;;;;11.77;2.17;;;;;;;6.00;77.85;99962.69;5088040;28;20052;-71
2022/01/09 11:01:29;;;;;;;17.52;2.53;;;;;;;5.96;77.71;99969.72;5088377;28;20151;-70
2022/01/09 11:04:01;;;;;;;;;;;;;;;5.97;77.77;99968.81;5088903;28;20052;-70
2022/01/09 11:06:32;;;;;;;6.45;1.92;;;;;;;6.09;77.68;99972.06;5092285;28;20026;-70
2022/01/09 11:09:02;;;;;;;12.45;3.70;;;;;;;6.12;77.99;99969.34;5085107;28;20443;-70
2022/01/09 11:11:36;;;;;;;9.18;2.53;;;;;;;6.15;77.28;99978.00;5084982;28;20049;-71
2022/01/09 11:14:06;;;;;;;15.90;3.47;;;;;;;6.20;77.96;99980.50;5092528;28;20044;-69
2022/01/09 11:16:37;;;;;;;11.50;2.47;;;;;;;6.20;78.04;99985.72;5092493;28;21028;-70
2022/01/09 11:19:10;;;;;;;11.95;2.65;;;;;;;6.19;77.72;99984.84;5086419;28;20044;-70
2022/01/09 11:21:45;;;;;;;9.30;3.03;;;;;;;6.19;77.68;99982.25;5093378;28;20048;-72
2022/01/09 11:24:30;;;;;;;17.73;4.28;;;;;;;6.18;77.25;99990.13;5088370;28;20481;-72
2022/01/09 11:27:25;;;;;;;13.13;3.60;;;;;;;6.15;77.43;99991.09;5088581;28;20056;-71
2022/01/09 11:30:14;;;;;;;11.50;2.63;;;;;;;6.12;77.22;99993.78;5091695;28;20052;-71
2022/01/09 11:33:05;;;;;;;11.85;2.15;;;;;;;6.09;77.92;100001.69;5091730;28;20051;-69
2022/01/09 11:35:54;;;;;;;9.90;2.53;;;;;;;6.11;78.01;100001.63;5091827;28;20059;-69
2022/01/09 11:38:32;;;;;;;13.20;2.17;;;;;;;6.12;77.88;100009.47;5084725;28;20045;-70
2022/01/09 11:41:24;;;;;;;8.63;2.35;;;;;;;6.15;78.21;100008.53;5092184;28;20045;-72
2022/01/09 11:43:58;;;;;;;11.35;2.58;;;;;;;6.15;77.50;100008.53;5093055;28;20130;-68
2022/01/09 11:46:30;;;;;;;10.00;2.53;;;;;;;6.16;76.92;100018.09;5089540;28;20049;-68